sensor_id;sensor_type;location;lat;lon;timestamp;P1;durP1;ratioP1;P2;durP2;ratioP2
44810;SDS011;30526;52.184;4.476;2022-11-14T00:00:51;25.27;;;14.32;;
44810;SDS011;30526;52.184;4.476;2022-11-14T00:03:17;25.33;;;13.57;;
44810;SDS011;30526;52.184;4.476;2022-11-14T00:05:44;21.67;;;13.60;;
44810;SDS011;30526;52.184;4.476;2022-11-14T00:08:15;15.88;;;10.32;;
44810;SDS011;30526;52.184;4.476;2022-11-14T00:10:41;20.25;;;12.82;;
44810;SDS011;30526;52.184;4.476;2022-11-14T00:13:09;19.33;;;13.07;;
44810;SDS011;30526;52.184;4.476;2022-11-14T00:15:35;22.85;;;13.98;;
44810;SDS011;30526;52.184;4.476;2022-11-14T00:18:01;18.67;;;12.13;;
44810;SDS011;30526;52.184;4.476;2022-11-14T00:20:27;20.75;;;14.27;;
44810;SDS011;30526;52.184;4.476;2022-11-14T00:22:53;26.98;;;14.20;;
44810;SDS011;30526;52.184;4.476;2022-11-14T00:25:19;24.02;;;14.32;;
44810;SDS011;30526;52.184;4.476;2022-11-14T00:27:45;21.60;;;13.60;;
44810;SDS011;30526;52.184;4.476;2022-11-14T00:30:11;20.10;;;13.18;;
44810;SDS011;30526;52.184;4.476;2022-11-14T00:32:37;21.88;;;13.07;;
44810;SDS011;30526;52.184;4.476;2022-11-14T00:35:04;19.15;;;12.18;;
44810;SDS011;30526;52.184;4.476;2022-11-14T00:37:30;22.63;;;13.32;;
44810;SDS011;30526;52.184;4.476;2022-11-14T00:39:56;23.85;;;12.65;;
44810;SDS011;30526;52.184;4.476;2022-11-14T00:42:22;21.20;;;13.55;;
44810;SDS011;30526;52.184;4.476;2022-11-14T00:44:48;20.83;;;13.52;;
44810;SDS011;30526;52.184;4.476;2022-11-14T00:47:14;22.50;;;12.98;;
44810;SDS011;30526;52.184;4.476;2022-11-14T00:49:40;23.02;;;13.43;;
44810;SDS011;30526;52.184;4.476;2022-11-14T00:52:06;23.30;;;13.50;;
44810;SDS011;30526;52.184;4.476;2022-11-14T00:54:32;20.48;;;12.75;;
44810;SDS011;30526;52.184;4.476;2022-11-14T00:56:58;24.15;;;13.43;;
44810;SDS011;30526;52.184;4.476;2022-11-14T00:59:24;20.35;;;13.52;;
44810;SDS011;30526;52.184;4.476;2022-11-14T01:01:50;18.45;;;13.25;;
44810;SDS011;30526;52.184;4.476;2022-11-14T01:04:16;20.65;;;13.25;;
44810;SDS011;30526;52.184;4.476;2022-11-14T01:06:42;22.70;;;13.35;;
44810;SDS011;30526;52.184;4.476;2022-11-14T01:09:08;25.15;;;13.30;;
44810;SDS011;30526;52.184;4.476;2022-11-14T01:11:34;20.40;;;13.30;;
44810;SDS011;30526;52.184;4.476;2022-11-14T01:14:00;23.02;;;12.98;;
44810;SDS011;30526;52.184;4.476;2022-11-14T01:16:26;19.17;;;12.93;;
44810;SDS011;30526;52.184;4.476;2022-11-14T01:18:53;23.90;;;14.03;;
44810;SDS011;30526;52.184;4.476;2022-11-14T01:21:19;20.77;;;13.10;;
44810;SDS011;30526;52.184;4.476;2022-11-14T01:23:45;20.25;;;13.30;;
44810;SDS011;30526;52.184;4.476;2022-11-14T01:26:11;20.20;;;13.10;;
44810;SDS011;30526;52.184;4.476;2022-11-14T01:28:38;15.80;;;10.02;;
44810;SDS011;30526;52.184;4.476;2022-11-14T01:31:15;14.63;;;9.30;;
44810;SDS011;30526;52.184;4.476;2022-11-14T01:33:41;18.52;;;10.30;;
44810;SDS011;30526;52.184;4.476;2022-11-14T01:36:08;25.63;;;13.10;;
44810;SDS011;30526;52.184;4.476;2022-11-14T01:38:34;22.92;;;14.05;;
44810;SDS011;30526;52.184;4.476;2022-11-14T01:41:00;19.38;;;11.18;;
44810;SDS011;30526;52.184;4.476;2022-11-14T01:43:28;17.17;;;10.88;;
44810;SDS011;30526;52.184;4.476;2022-11-14T01:48:29;24.70;;;13.80;;
44810;SDS011;30526;52.184;4.476;2022-11-14T01:50:57;25.35;;;14.95;;
44810;SDS011;30526;52.184;4.476;2022-11-14T01:53:25;23.02;;;13.85;;
44810;SDS011;30526;52.184;4.476;2022-11-14T01:55:51;24.33;;;13.90;;
44810;SDS011;30526;52.184;4.476;2022-11-14T01:58:18;21.30;;;11.50;;
44810;SDS011;30526;52.184;4.476;2022-11-14T02:00:45;20.73;;;12.23;;
44810;SDS011;30526;52.184;4.476;2022-11-14T02:03:11;31.90;;;15.95;;
44810;SDS011;30526;52.184;4.476;2022-11-14T02:05:38;19.50;;;11.00;;
44810;SDS011;30526;52.184;4.476;2022-11-14T02:08:05;17.25;;;11.07;;
44810;SDS011;30526;52.184;4.476;2022-11-14T02:10:31;27.80;;;14.52;;
44810;SDS011;30526;52.184;4.476;2022-11-14T02:12:57;26.67;;;15.02;;
44810;SDS011;30526;52.184;4.476;2022-11-14T02:15:23;29.58;;;16.10;;
44810;SDS011;30526;52.184;4.476;2022-11-14T02:17:50;20.77;;;11.82;;
44810;SDS011;30526;52.184;4.476;2022-11-14T02:20:17;28.65;;;15.18;;
44810;SDS011;30526;52.184;4.476;2022-11-14T02:22:44;24.70;;;14.77;;
44810;SDS011;30526;52.184;4.476;2022-11-14T02:25:10;29.42;;;16.05;;
44810;SDS011;30526;52.184;4.476;2022-11-14T02:27:37;29.20;;;15.95;;
44810;SDS011;30526;52.184;4.476;2022-11-14T02:30:05;20.77;;;11.93;;
44810;SDS011;30526;52.184;4.476;2022-11-14T02:34:57;24.98;;;14.25;;
44810;SDS011;30526;52.184;4.476;2022-11-14T02:37:23;28.70;;;15.85;;
44810;SDS011;30526;52.184;4.476;2022-11-14T02:39:49;29.42;;;16.65;;
44810;SDS011;30526;52.184;4.476;2022-11-14T02:42:15;28.42;;;15.73;;
44810;SDS011;30526;52.184;4.476;2022-11-14T02:44:41;29.35;;;16.40;;
44810;SDS011;30526;52.184;4.476;2022-11-14T02:47:07;29.80;;;16.27;;
44810;SDS011;30526;52.184;4.476;2022-11-14T02:49:33;33.33;;;15.63;;
44810;SDS011;30526;52.184;4.476;2022-11-14T02:51:59;32.50;;;16.55;;
44810;SDS011;30526;52.184;4.476;2022-11-14T02:54:25;38.65;;;17.67;;
44810;SDS011;30526;52.184;4.476;2022-11-14T02:56:51;32.47;;;17.20;;
44810;SDS011;30526;52.184;4.476;2022-11-14T02:59:17;27.95;;;15.80;;
44810;SDS011;30526;52.184;4.476;2022-11-14T03:01:43;38.22;;;19.08;;
44810;SDS011;30526;52.184;4.476;2022-11-14T03:04:09;30.67;;;16.88;;
44810;SDS011;30526;52.184;4.476;2022-11-14T03:06:35;37.33;;;18.33;;
44810;SDS011;30526;52.184;4.476;2022-11-14T03:09:01;38.20;;;18.95;;
44810;SDS011;30526;52.184;4.476;2022-11-14T03:11:27;37.05;;;17.85;;
44810;SDS011;30526;52.184;4.476;2022-11-14T03:13:53;37.17;;;19.48;;
44810;SDS011;30526;52.184;4.476;2022-11-14T03:16:19;30.75;;;17.98;;
44810;SDS011;30526;52.184;4.476;2022-11-14T03:18:45;35.30;;;18.52;;
44810;SDS011;30526;52.184;4.476;2022-11-14T03:21:13;36.83;;;18.67;;
44810;SDS011;30526;52.184;4.476;2022-11-14T03:23:39;39.53;;;18.95;;
44810;SDS011;30526;52.184;4.476;2022-11-14T03:26:06;35.92;;;19.63;;
44810;SDS011;30526;52.184;4.476;2022-11-14T03:28:32;27.85;;;14.43;;
44810;SDS011;30526;52.184;4.476;2022-11-14T03:30:59;40.40;;;19.95;;
44810;SDS011;30526;52.184;4.476;2022-11-14T03:33:25;44.25;;;20.05;;
44810;SDS011;30526;52.184;4.476;2022-11-14T03:35:51;40.75;;;19.83;;
44810;SDS011;30526;52.184;4.476;2022-11-14T03:38:18;32.05;;;15.73;;
44810;SDS011;30526;52.184;4.476;2022-11-14T03:40:47;38.22;;;20.17;;
44810;SDS011;30526;52.184;4.476;2022-11-14T03:43:13;39.40;;;20.30;;
44810;SDS011;30526;52.184;4.476;2022-11-14T03:45:39;42.47;;;19.63;;
44810;SDS011;30526;52.184;4.476;2022-11-14T03:48:05;46.10;;;21.33;;
44810;SDS011;30526;52.184;4.476;2022-11-14T03:50:31;43.65;;;21.05;;
44810;SDS011;30526;52.184;4.476;2022-11-14T03:52:57;48.95;;;20.77;;
44810;SDS011;30526;52.184;4.476;2022-11-14T03:55:23;49.47;;;23.75;;
44810;SDS011;30526;52.184;4.476;2022-11-14T03:57:49;47.85;;;21.23;;
44810;SDS011;30526;52.184;4.476;2022-11-14T04:00:15;43.38;;;21.38;;
44810;SDS011;30526;52.184;4.476;2022-11-14T04:02:41;53.90;;;24.20;;
44810;SDS011;30526;52.184;4.476;2022-11-14T04:05:08;48.42;;;21.75;;
44810;SDS011;30526;52.184;4.476;2022-11-14T04:07:34;33.40;;;16.42;;
44810;SDS011;30526;52.184;4.476;2022-11-14T04:10:00;43.95;;;21.73;;
44810;SDS011;30526;52.184;4.476;2022-11-14T04:12:26;48.30;;;21.48;;
44810;SDS011;30526;52.184;4.476;2022-11-14T04:14:52;49.58;;;21.98;;
44810;SDS011;30526;52.184;4.476;2022-11-14T04:17:18;46.30;;;22.90;;
44810;SDS011;30526;52.184;4.476;2022-11-14T04:19:44;54.75;;;23.83;;
44810;SDS011;30526;52.184;4.476;2022-11-14T04:22:10;54.42;;;23.52;;
44810;SDS011;30526;52.184;4.476;2022-11-14T04:24:36;53.13;;;23.92;;
44810;SDS011;30526;52.184;4.476;2022-11-14T04:27:02;51.75;;;25.02;;
44810;SDS011;30526;52.184;4.476;2022-11-14T04:29:28;55.35;;;25.30;;
44810;SDS011;30526;52.184;4.476;2022-11-14T04:31:54;58.28;;;25.15;;
44810;SDS011;30526;52.184;4.476;2022-11-14T04:34:20;58.60;;;25.38;;
44810;SDS011;30526;52.184;4.476;2022-11-14T04:36:46;52.97;;;24.67;;
44810;SDS011;30526;52.184;4.476;2022-11-14T04:39:15;57.45;;;26.42;;
44810;SDS011;30526;52.184;4.476;2022-11-14T04:41:41;58.80;;;25.63;;
44810;SDS011;30526;52.184;4.476;2022-11-14T04:44:07;60.97;;;24.85;;
44810;SDS011;30526;52.184;4.476;2022-11-14T04:46:33;64.20;;;25.95;;
44810;SDS011;30526;52.184;4.476;2022-11-14T04:48:59;61.47;;;24.05;;
44810;SDS011;30526;52.184;4.476;2022-11-14T04:51:25;55.95;;;25.88;;
44810;SDS011;30526;52.184;4.476;2022-11-14T04:53:51;56.83;;;26.65;;
44810;SDS011;30526;52.184;4.476;2022-11-14T04:56:17;57.83;;;25.27;;
44810;SDS011;30526;52.184;4.476;2022-11-14T04:58:43;55.20;;;25.50;;
44810;SDS011;30526;52.184;4.476;2022-11-14T05:01:09;55.58;;;24.77;;
44810;SDS011;30526;52.184;4.476;2022-11-14T05:03:35;41.70;;;18.90;;
44810;SDS011;30526;52.184;4.476;2022-11-14T05:06:02;68.05;;;26.25;;
44810;SDS011;30526;52.184;4.476;2022-11-14T05:08:28;51.43;;;20.63;;
44810;SDS011;30526;52.184;4.476;2022-11-14T05:10:54;59.75;;;25.40;;
44810;SDS011;30526;52.184;4.476;2022-11-14T05:13:20;61.97;;;27.45;;
44810;SDS011;30526;52.184;4.476;2022-11-14T05:15:46;72.53;;;27.45;;
44810;SDS011;30526;52.184;4.476;2022-11-14T05:18:12;64.85;;;28.00;;
44810;SDS011;30526;52.184;4.476;2022-11-14T05:20:38;67.22;;;26.42;;
44810;SDS011;30526;52.184;4.476;2022-11-14T05:23:04;66.00;;;27.10;;
44810;SDS011;30526;52.184;4.476;2022-11-14T05:25:30;67.63;;;26.85;;
44810;SDS011;30526;52.184;4.476;2022-11-14T05:27:56;76.15;;;26.80;;
44810;SDS011;30526;52.184;4.476;2022-11-14T05:30:22;75.13;;;27.75;;
44810;SDS011;30526;52.184;4.476;2022-11-14T05:32:50;69.07;;;26.95;;
44810;SDS011;30526;52.184;4.476;2022-11-14T05:35:16;73.47;;;28.90;;
44810;SDS011;30526;52.184;4.476;2022-11-14T05:37:42;71.32;;;28.85;;
44810;SDS011;30526;52.184;4.476;2022-11-14T05:40:09;66.40;;;27.60;;
44810;SDS011;30526;52.184;4.476;2022-11-14T05:42:35;75.63;;;27.25;;
44810;SDS011;30526;52.184;4.476;2022-11-14T05:45:01;69.38;;;27.58;;
44810;SDS011;30526;52.184;4.476;2022-11-14T05:47:27;69.78;;;27.58;;
44810;SDS011;30526;52.184;4.476;2022-11-14T05:49:53;62.47;;;25.17;;
44810;SDS011;30526;52.184;4.476;2022-11-14T05:52:19;65.47;;;25.90;;
44810;SDS011;30526;52.184;4.476;2022-11-14T05:54:45;64.50;;;27.13;;
44810;SDS011;30526;52.184;4.476;2022-11-14T05:57:11;67.97;;;27.38;;
44810;SDS011;30526;52.184;4.476;2022-11-14T05:59:37;61.75;;;25.73;;
44810;SDS011;30526;52.184;4.476;2022-11-14T06:02:03;71.05;;;27.00;;
44810;SDS011;30526;52.184;4.476;2022-11-14T06:04:29;70.05;;;28.45;;
44810;SDS011;30526;52.184;4.476;2022-11-14T06:06:55;66.53;;;27.95;;
44810;SDS011;30526;52.184;4.476;2022-11-14T06:09:21;76.93;;;28.48;;
44810;SDS011;30526;52.184;4.476;2022-11-14T06:11:47;71.22;;;26.10;;
44810;SDS011;30526;52.184;4.476;2022-11-14T06:14:13;59.78;;;25.25;;
44810;SDS011;30526;52.184;4.476;2022-11-14T06:16:39;63.58;;;26.98;;
44810;SDS011;30526;52.184;4.476;2022-11-14T06:19:05;73.95;;;27.23;;
44810;SDS011;30526;52.184;4.476;2022-11-14T06:21:31;65.57;;;27.45;;
44810;SDS011;30526;52.184;4.476;2022-11-14T06:23:57;69.72;;;26.42;;
44810;SDS011;30526;52.184;4.476;2022-11-14T06:26:27;62.70;;;26.90;;
44810;SDS011;30526;52.184;4.476;2022-11-14T06:28:57;62.85;;;25.73;;
44810;SDS011;30526;52.184;4.476;2022-11-14T06:31:23;52.70;;;19.90;;
44810;SDS011;30526;52.184;4.476;2022-11-14T06:33:50;49.37;;;18.93;;
44810;SDS011;30526;52.184;4.476;2022-11-14T06:36:16;51.35;;;20.60;;
44810;SDS011;30526;52.184;4.476;2022-11-14T06:38:42;70.72;;;26.55;;
44810;SDS011;30526;52.184;4.476;2022-11-14T06:41:10;57.13;;;19.30;;
44810;SDS011;30526;52.184;4.476;2022-11-14T06:46:06;60.70;;;25.10;;
44810;SDS011;30526;52.184;4.476;2022-11-14T06:48:32;62.42;;;25.77;;
44810;SDS011;30526;52.184;4.476;2022-11-14T06:50:59;68.88;;;26.58;;
44810;SDS011;30526;52.184;4.476;2022-11-14T06:53:26;48.57;;;19.53;;
44810;SDS011;30526;52.184;4.476;2022-11-14T06:55:54;57.08;;;24.10;;
44810;SDS011;30526;52.184;4.476;2022-11-14T06:58:20;42.22;;;17.02;;
44810;SDS011;30526;52.184;4.476;2022-11-14T07:00:46;59.55;;;25.65;;
44810;SDS011;30526;52.184;4.476;2022-11-14T07:03:12;70.72;;;24.88;;
44810;SDS011;30526;52.184;4.476;2022-11-14T07:05:38;62.55;;;25.85;;
44810;SDS011;30526;52.184;4.476;2022-11-14T07:08:04;65.60;;;25.42;;
44810;SDS011;30526;52.184;4.476;2022-11-14T07:10:30;64.63;;;26.70;;
44810;SDS011;30526;52.184;4.476;2022-11-14T07:12:56;61.92;;;25.15;;
44810;SDS011;30526;52.184;4.476;2022-11-14T07:15:22;71.40;;;26.67;;
44810;SDS011;30526;52.184;4.476;2022-11-14T07:17:48;60.85;;;24.30;;
44810;SDS011;30526;52.184;4.476;2022-11-14T07:20:14;66.35;;;25.48;;
44810;SDS011;30526;52.184;4.476;2022-11-14T07:22:44;64.55;;;24.17;;
44810;SDS011;30526;52.184;4.476;2022-11-14T07:25:10;67.32;;;25.13;;
44810;SDS011;30526;52.184;4.476;2022-11-14T07:27:36;73.75;;;27.30;;
44810;SDS011;30526;52.184;4.476;2022-11-14T07:30:02;65.80;;;25.50;;
44810;SDS011;30526;52.184;4.476;2022-11-14T07:32:28;66.75;;;25.98;;
44810;SDS011;30526;52.184;4.476;2022-11-14T07:34:54;64.85;;;24.90;;
44810;SDS011;30526;52.184;4.476;2022-11-14T07:37:20;71.38;;;27.10;;
44810;SDS011;30526;52.184;4.476;2022-11-14T07:39:46;65.70;;;26.75;;
44810;SDS011;30526;52.184;4.476;2022-11-14T07:42:12;64.85;;;26.80;;
44810;SDS011;30526;52.184;4.476;2022-11-14T07:44:38;62.58;;;25.63;;
44810;SDS011;30526;52.184;4.476;2022-11-14T07:47:04;65.05;;;25.38;;
44810;SDS011;30526;52.184;4.476;2022-11-14T07:49:31;68.03;;;26.30;;
44810;SDS011;30526;52.184;4.476;2022-11-14T07:54:24;53.53;;;23.77;;
44810;SDS011;30526;52.184;4.476;2022-11-14T07:56:50;65.55;;;26.25;;
44810;SDS011;30526;52.184;4.476;2022-11-14T07:59:16;66.95;;;24.80;;
44810;SDS011;30526;52.184;4.476;2022-11-14T08:01:42;73.40;;;25.40;;
44810;SDS011;30526;52.184;4.476;2022-11-14T08:04:08;54.45;;;24.48;;
44810;SDS011;30526;52.184;4.476;2022-11-14T08:06:34;68.28;;;26.35;;
44810;SDS011;30526;52.184;4.476;2022-11-14T08:09:00;63.45;;;25.95;;
44810;SDS011;30526;52.184;4.476;2022-11-14T08:11:26;65.40;;;24.58;;
44810;SDS011;30526;52.184;4.476;2022-11-14T08:14:10;66.85;;;26.05;;
44810;SDS011;30526;52.184;4.476;2022-11-14T08:16:36;62.35;;;26.38;;
44810;SDS011;30526;52.184;4.476;2022-11-14T08:19:02;66.88;;;24.48;;
44810;SDS011;30526;52.184;4.476;2022-11-14T08:21:28;69.00;;;26.85;;
44810;SDS011;30526;52.184;4.476;2022-11-14T08:23:54;62.30;;;26.00;;
44810;SDS011;30526;52.184;4.476;2022-11-14T08:26:21;70.93;;;25.75;;
44810;SDS011;30526;52.184;4.476;2022-11-14T08:28:47;66.20;;;26.17;;
44810;SDS011;30526;52.184;4.476;2022-11-14T08:31:13;65.00;;;25.65;;
44810;SDS011;30526;52.184;4.476;2022-11-14T08:33:39;62.97;;;25.92;;
44810;SDS011;30526;52.184;4.476;2022-11-14T08:36:05;61.88;;;26.55;;
44810;SDS011;30526;52.184;4.476;2022-11-14T08:38:32;51.42;;;20.17;;
44810;SDS011;30526;52.184;4.476;2022-11-14T08:41:02;41.85;;;18.05;;
44810;SDS011;30526;52.184;4.476;2022-11-14T08:43:28;59.63;;;26.85;;
44810;SDS011;30526;52.184;4.476;2022-11-14T08:45:58;51.78;;;19.23;;
44810;SDS011;30526;52.184;4.476;2022-11-14T08:48:24;57.72;;;24.98;;
44810;SDS011;30526;52.184;4.476;2022-11-14T08:50:50;50.97;;;24.25;;
44810;SDS011;30526;52.184;4.476;2022-11-14T08:53:16;54.33;;;25.05;;
44810;SDS011;30526;52.184;4.476;2022-11-14T08:55:45;53.50;;;23.98;;
44810;SDS011;30526;52.184;4.476;2022-11-14T08:58:11;41.70;;;17.73;;
44810;SDS011;30526;52.184;4.476;2022-11-14T09:00:37;53.75;;;22.30;;
44810;SDS011;30526;52.184;4.476;2022-11-14T09:03:10;46.35;;;22.05;;
44810;SDS011;30526;52.184;4.476;2022-11-14T09:05:38;48.08;;;22.27;;
44810;SDS011;30526;52.184;4.476;2022-11-14T09:08:04;45.97;;;21.90;;
44810;SDS011;30526;52.184;4.476;2022-11-14T09:10:30;47.58;;;22.23;;
44810;SDS011;30526;52.184;4.476;2022-11-14T09:12:57;41.22;;;20.38;;
44810;SDS011;30526;52.184;4.476;2022-11-14T09:15:23;31.17;;;15.95;;
44810;SDS011;30526;52.184;4.476;2022-11-14T09:17:53;39.35;;;19.00;;
44810;SDS011;30526;52.184;4.476;2022-11-14T09:20:19;40.50;;;19.55;;
44810;SDS011;30526;52.184;4.476;2022-11-14T09:22:45;35.30;;;16.10;;
44810;SDS011;30526;52.184;4.476;2022-11-14T09:25:12;37.17;;;19.40;;
44810;SDS011;30526;52.184;4.476;2022-11-14T09:27:38;34.28;;;18.88;;
44810;SDS011;30526;52.184;4.476;2022-11-14T09:30:04;34.50;;;18.15;;
44810;SDS011;30526;52.184;4.476;2022-11-14T09:32:30;28.67;;;13.93;;
44810;SDS011;30526;52.184;4.476;2022-11-14T09:34:56;36.28;;;16.98;;
44810;SDS011;30526;52.184;4.476;2022-11-14T09:37:22;32.58;;;16.80;;
44810;SDS011;30526;52.184;4.476;2022-11-14T09:39:48;29.70;;;16.17;;
44810;SDS011;30526;52.184;4.476;2022-11-14T09:42:18;31.17;;;16.08;;
44810;SDS011;30526;52.184;4.476;2022-11-14T09:47:21;35.85;;;16.67;;
44810;SDS011;30526;52.184;4.476;2022-11-14T09:49:48;27.48;;;15.93;;
44810;SDS011;30526;52.184;4.476;2022-11-14T09:52:35;29.75;;;14.43;;
44810;SDS011;30526;52.184;4.476;2022-11-14T09:55:03;28.80;;;14.02;;
44810;SDS011;30526;52.184;4.476;2022-11-14T09:57:34;30.70;;;14.98;;
44810;SDS011;30526;52.184;4.476;2022-11-14T10:00:00;30.15;;;15.43;;
44810;SDS011;30526;52.184;4.476;2022-11-14T10:02:41;26.13;;;14.75;;
44810;SDS011;30526;52.184;4.476;2022-11-14T10:10:14;25.60;;;14.07;;
44810;SDS011;30526;52.184;4.476;2022-11-14T10:12:53;26.40;;;13.95;;
44810;SDS011;30526;52.184;4.476;2022-11-14T10:15:33;23.80;;;13.95;;
44810;SDS011;30526;52.184;4.476;2022-11-14T10:18:11;28.13;;;14.40;;
44810;SDS011;30526;52.184;4.476;2022-11-14T10:23:11;25.27;;;13.80;;
44810;SDS011;30526;52.184;4.476;2022-11-14T10:26:04;28.77;;;13.27;;
44810;SDS011;30526;52.184;4.476;2022-11-14T10:32:00;24.52;;;13.25;;
44810;SDS011;30526;52.184;4.476;2022-11-14T10:36:20;27.45;;;15.10;;
44810;SDS011;30526;52.184;4.476;2022-11-14T10:38:55;22.45;;;12.95;;
44810;SDS011;30526;52.184;4.476;2022-11-14T10:41:26;21.33;;;13.32;;
44810;SDS011;30526;52.184;4.476;2022-11-14T10:46:29;22.88;;;12.95;;
44810;SDS011;30526;52.184;4.476;2022-11-14T10:48:57;25.25;;;12.73;;
44810;SDS011;30526;52.184;4.476;2022-11-14T10:51:32;16.65;;;10.23;;
44810;SDS011;30526;52.184;4.476;2022-11-14T10:56:34;23.45;;;13.27;;
44810;SDS011;30526;52.184;4.476;2022-11-14T10:59:10;23.80;;;13.07;;
44810;SDS011;30526;52.184;4.476;2022-11-14T11:04:30;21.33;;;12.88;;
44810;SDS011;30526;52.184;4.476;2022-11-14T11:06:57;16.58;;;9.95;;
44810;SDS011;30526;52.184;4.476;2022-11-14T11:09:32;22.30;;;12.80;;
44810;SDS011;30526;52.184;4.476;2022-11-14T11:12:19;17.40;;;10.13;;
44810;SDS011;30526;52.184;4.476;2022-11-14T11:14:46;16.15;;;10.15;;
44810;SDS011;30526;52.184;4.476;2022-11-14T11:19:43;24.27;;;13.23;;
44810;SDS011;30526;52.184;4.476;2022-11-14T11:24:56;32.53;;;12.77;;
44810;SDS011;30526;52.184;4.476;2022-11-14T11:27:24;22.48;;;12.32;;
44810;SDS011;30526;52.184;4.476;2022-11-14T11:30:04;22.52;;;12.40;;
44810;SDS011;30526;52.184;4.476;2022-11-14T11:32:31;21.25;;;12.35;;
44810;SDS011;30526;52.184;4.476;2022-11-14T11:34:57;22.23;;;12.50;;
44810;SDS011;30526;52.184;4.476;2022-11-14T11:37:25;20.13;;;9.85;;
44810;SDS011;30526;52.184;4.476;2022-11-14T11:39:56;18.98;;;11.73;;
44810;SDS011;30526;52.184;4.476;2022-11-14T11:42:33;19.25;;;10.93;;
44810;SDS011;30526;52.184;4.476;2022-11-14T11:45:01;20.48;;;11.40;;
44810;SDS011;30526;52.184;4.476;2022-11-14T11:49:54;16.60;;;10.27;;
44810;SDS011;30526;52.184;4.476;2022-11-14T11:55:01;16.38;;;10.20;;
44810;SDS011;30526;52.184;4.476;2022-11-14T11:57:30;15.00;;;10.00;;
44810;SDS011;30526;52.184;4.476;2022-11-14T12:00:04;18.10;;;10.95;;
44810;SDS011;30526;52.184;4.476;2022-11-14T12:02:31;15.32;;;9.70;;
44810;SDS011;30526;52.184;4.476;2022-11-14T12:04:57;15.23;;;9.60;;
44810;SDS011;30526;52.184;4.476;2022-11-14T12:09:50;10.83;;;8.50;;
44810;SDS011;30526;52.184;4.476;2022-11-14T12:20:26;14.65;;;9.75;;
44810;SDS011;30526;52.184;4.476;2022-11-14T12:30:56;14.57;;;10.10;;
44810;SDS011;30526;52.184;4.476;2022-11-14T12:33:25;13.18;;;10.48;;
44810;SDS011;30526;52.184;4.476;2022-11-14T12:35:55;10.30;;;8.93;;
44810;SDS011;30526;52.184;4.476;2022-11-14T12:38:22;15.77;;;10.52;;
44810;SDS011;30526;52.184;4.476;2022-11-14T12:40:52;14.00;;;10.13;;
44810;SDS011;30526;52.184;4.476;2022-11-14T12:43:35;13.73;;;10.30;;
44810;SDS011;30526;52.184;4.476;2022-11-14T12:46:09;15.52;;;10.68;;
44810;SDS011;30526;52.184;4.476;2022-11-14T12:48:40;11.80;;;9.77;;
44810;SDS011;30526;52.184;4.476;2022-11-14T12:53:52;19.95;;;14.25;;
44810;SDS011;30526;52.184;4.476;2022-11-14T13:06:33;18.92;;;13.50;;
44810;SDS011;30526;52.184;4.476;2022-11-14T13:08:58;13.57;;;9.43;;
44810;SDS011;30526;52.184;4.476;2022-11-14T13:14:18;17.75;;;12.52;;
44810;SDS011;30526;52.184;4.476;2022-11-14T13:20:02;17.95;;;13.07;;
44810;SDS011;30526;52.184;4.476;2022-11-14T13:31:20;17.00;;;12.43;;
44810;SDS011;30526;52.184;4.476;2022-11-14T13:39:02;23.90;;;12.48;;
44810;SDS011;30526;52.184;4.476;2022-11-14T13:51:39;18.33;;;12.02;;
44810;SDS011;30526;52.184;4.476;2022-11-14T13:54:12;14.05;;;10.70;;
44810;SDS011;30526;52.184;4.476;2022-11-14T13:56:48;15.85;;;11.05;;
44810;SDS011;30526;52.184;4.476;2022-11-14T13:59:20;15.55;;;10.88;;
44810;SDS011;30526;52.184;4.476;2022-11-14T14:04:39;18.50;;;10.27;;
44810;SDS011;30526;52.184;4.476;2022-11-14T14:07:22;20.33;;;10.02;;
44810;SDS011;30526;52.184;4.476;2022-11-14T14:10:08;12.68;;;10.23;;
44810;SDS011;30526;52.184;4.476;2022-11-14T14:12:56;13.68;;;9.80;;
44810;SDS011;30526;52.184;4.476;2022-11-14T14:15:35;13.93;;;9.93;;
44810;SDS011;30526;52.184;4.476;2022-11-14T14:18:16;13.70;;;9.55;;
44810;SDS011;30526;52.184;4.476;2022-11-14T14:21:01;12.27;;;8.98;;
44810;SDS011;30526;52.184;4.476;2022-11-14T14:24:12;14.15;;;10.02;;
44810;SDS011;30526;52.184;4.476;2022-11-14T14:29:08;12.77;;;10.15;;
44810;SDS011;30526;52.184;4.476;2022-11-14T14:31:39;14.47;;;9.67;;
44810;SDS011;30526;52.184;4.476;2022-11-14T14:36:52;15.52;;;9.90;;
44810;SDS011;30526;52.184;4.476;2022-11-14T14:39:19;16.08;;;9.77;;
44810;SDS011;30526;52.184;4.476;2022-11-14T14:41:45;15.20;;;10.07;;
44810;SDS011;30526;52.184;4.476;2022-11-14T14:44:16;11.32;;;10.07;;
44810;SDS011;30526;52.184;4.476;2022-11-14T14:46:44;12.65;;;8.98;;
44810;SDS011;30526;52.184;4.476;2022-11-14T14:49:10;14.88;;;9.98;;
44810;SDS011;30526;52.184;4.476;2022-11-14T14:51:36;14.05;;;10.35;;
44810;SDS011;30526;52.184;4.476;2022-11-14T14:54:02;14.65;;;10.00;;
44810;SDS011;30526;52.184;4.476;2022-11-14T14:56:31;16.75;;;10.00;;
44810;SDS011;30526;52.184;4.476;2022-11-14T14:58:57;18.33;;;10.60;;
44810;SDS011;30526;52.184;4.476;2022-11-14T15:01:27;16.92;;;10.25;;
44810;SDS011;30526;52.184;4.476;2022-11-14T15:03:56;16.05;;;11.20;;
44810;SDS011;30526;52.184;4.476;2022-11-14T15:06:38;14.38;;;10.40;;
44810;SDS011;30526;52.184;4.476;2022-11-14T15:11:30;18.63;;;12.15;;
44810;SDS011;30526;52.184;4.476;2022-11-14T15:13:57;18.25;;;12.40;;
44810;SDS011;30526;52.184;4.476;2022-11-14T15:16:24;18.95;;;11.57;;
44810;SDS011;30526;52.184;4.476;2022-11-14T15:18:51;14.65;;;11.40;;
44810;SDS011;30526;52.184;4.476;2022-11-14T15:21:22;25.08;;;12.00;;
44810;SDS011;30526;52.184;4.476;2022-11-14T15:23:59;19.17;;;12.88;;
44810;SDS011;30526;52.184;4.476;2022-11-14T15:26:25;18.45;;;12.25;;
44810;SDS011;30526;52.184;4.476;2022-11-14T15:29:01;14.75;;;8.25;;
44810;SDS011;30526;52.184;4.476;2022-11-14T15:31:28;20.52;;;12.15;;
44810;SDS011;30526;52.184;4.476;2022-11-14T15:34:01;16.27;;;12.07;;
44810;SDS011;30526;52.184;4.476;2022-11-14T15:36:27;19.65;;;11.75;;
44810;SDS011;30526;52.184;4.476;2022-11-14T15:38:57;21.40;;;12.38;;
44810;SDS011;30526;52.184;4.476;2022-11-14T15:41:23;37.53;;;21.00;;
44810;SDS011;30526;52.184;4.476;2022-11-14T15:43:52;37.88;;;24.13;;
44810;SDS011;30526;52.184;4.476;2022-11-14T15:49:00;39.92;;;26.20;;
44810;SDS011;30526;52.184;4.476;2022-11-14T15:54:04;47.78;;;27.65;;
44810;SDS011;30526;52.184;4.476;2022-11-14T15:56:30;53.58;;;29.58;;
44810;SDS011;30526;52.184;4.476;2022-11-14T15:58:57;50.70;;;30.02;;
44810;SDS011;30526;52.184;4.476;2022-11-14T16:01:23;51.38;;;30.90;;
44810;SDS011;30526;52.184;4.476;2022-11-14T16:03:52;59.42;;;32.83;;
44810;SDS011;30526;52.184;4.476;2022-11-14T16:06:18;60.50;;;33.78;;
44810;SDS011;30526;52.184;4.476;2022-11-14T16:08:45;46.75;;;27.60;;
44810;SDS011;30526;52.184;4.476;2022-11-14T16:11:11;57.92;;;33.03;;
44810;SDS011;30526;52.184;4.476;2022-11-14T16:13:37;53.92;;;31.45;;
44810;SDS011;30526;52.184;4.476;2022-11-14T16:16:03;55.85;;;32.83;;
44810;SDS011;30526;52.184;4.476;2022-11-14T16:18:29;59.67;;;34.08;;
44810;SDS011;30526;52.184;4.476;2022-11-14T16:20:55;61.92;;;33.55;;
44810;SDS011;30526;52.184;4.476;2022-11-14T16:23:23;61.55;;;33.60;;
44810;SDS011;30526;52.184;4.476;2022-11-14T16:25:49;65.50;;;35.55;;
44810;SDS011;30526;52.184;4.476;2022-11-14T16:28:15;67.68;;;35.72;;